Terminal Aerodrome Forecast
Issued by NWS

Home | Current Version | Previous Version | Text Only | Print | Product List | Glossary On
Versions: 1 2 3 4 5 6 7 8 9 10 11 12 13 14 15 16 17 18 19 20 21 22 23 24 25 26 27 28
000
FTUS41 KBUF 270520
TAFJHW
TAF
KJHW 270520Z 2706/2806 00000KT P6SM SKC
     FM270800 00000KT 4SM BR SCT200
     FM271000 10004KT 2SM BR SCT130
     FM271200 11005KT P6SM SCT110
     FM280000 VRB03KT P6SM SCT090
      AMD LTD TO CLD VIS AND WIND=

USA.gov is the U.S. government's official web portal to all federal, state and local government web resources and services.